Главная страница
METAR-TAF:

METAR-TAF

Аэропорты :

Антигуа, Антигуа и Барбуда

широта: 17-07N, долгота: 061-47W, высота над уровнем моря: 8 м

Текущие метеонаблюдения

Эта сводка был подготовлена 33 минут назад, в 13:00 UTC
Ветер 11 Узел от восточно-юго-восточный
Температура 29°C
Влажность 70%
Давление 1018 hPa
Видимость 10 км и более
Рассеянная облачность на высоте 1800 фута

METAR: TAPA 231300Z 12011KT 9999 BKN018 29/23 Q1018 NOSIG

Время: 09:33 (13:33 UTC)

Прогноз

Эта сводка был подготовлена 2 часа и 33 минут назад, в 11:00 UTC
Прогноз действительный с 23-го 12 UTC до 24-го 12 UTC
Ветер 15 Узел от восточный
Видимость 10 км и более
Отдельные облака на высоте 2000 фута

TAF: TAPA 231100Z 2312/2412 10015KT 9999 SCT020

Метеонаблюдения и прогнозы для более 4000 аэропортов (сводки METAR и TAF).

Имеющиеся станции представлены на карте желтыми и красными точками.

Чтобы увидеть название станции, наведите на нее мышь.

Затем щелкните, чтобы увидеть метеонаблюдения и метеопрогнозы.

Управление картой: чтобы увеличить масштаб, щелкните зеленые кнопки с черным крестиком; чтобы уменьшить масштаб, щелкните зеленую кнопку с тире; для просмотра соседних карт щелкайте зеленые стрелки.


METAR-TAF: